sensor_id;sensor_type;location;lat;lon;timestamp;P1;durP1;ratioP1;P2;durP2;ratioP2
18336;SDS011;9294;51.106;7.028;2023-11-21T00:02:25;3.28;;;3.00;;
18336;SDS011;9294;51.106;7.028;2023-11-21T00:04:53;2.60;;;2.45;;
18336;SDS011;9294;51.106;7.028;2023-11-21T00:07:19;2.80;;;2.60;;
18336;SDS011;9294;51.106;7.028;2023-11-21T00:09:46;3.40;;;3.08;;
18336;SDS011;9294;51.106;7.028;2023-11-21T00:12:13;3.28;;;3.08;;
18336;SDS011;9294;51.106;7.028;2023-11-21T00:14:40;3.75;;;3.45;;
18336;SDS011;9294;51.106;7.028;2023-11-21T00:17:06;3.65;;;3.35;;
18336;SDS011;9294;51.106;7.028;2023-11-21T00:19:35;4.20;;;3.17;;
18336;SDS011;9294;51.106;7.028;2023-11-21T00:22:02;4.47;;;3.45;;
18336;SDS011;9294;51.106;7.028;2023-11-21T00:24:29;3.30;;;3.00;;
18336;SDS011;9294;51.106;7.028;2023-11-21T00:26:56;4.00;;;2.95;;
18336;SDS011;9294;51.106;7.028;2023-11-21T00:29:23;3.95;;;3.65;;
18336;SDS011;9294;51.106;7.028;2023-11-21T00:31:50;3.00;;;2.80;;
18336;SDS011;9294;51.106;7.028;2023-11-21T00:34:18;3.00;;;2.80;;
18336;SDS011;9294;51.106;7.028;2023-11-21T00:36:46;3.22;;;2.92;;
18336;SDS011;9294;51.106;7.028;2023-11-21T00:39:13;2.97;;;2.65;;
18336;SDS011;9294;51.106;7.028;2023-11-21T00:41:39;2.78;;;2.58;;
18336;SDS011;9294;51.106;7.028;2023-11-21T00:44:07;2.97;;;2.72;;
18336;SDS011;9294;51.106;7.028;2023-11-21T00:46:33;3.78;;;3.47;;
18336;SDS011;9294;51.106;7.028;2023-11-21T00:49:00;3.97;;;3.55;;
18336;SDS011;9294;51.106;7.028;2023-11-21T00:51:29;3.15;;;2.85;;
18336;SDS011;9294;51.106;7.028;2023-11-21T00:53:57;2.53;;;2.33;;
18336;SDS011;9294;51.106;7.028;2023-11-21T00:56:24;2.90;;;2.70;;
18336;SDS011;9294;51.106;7.028;2023-11-21T00:58:50;3.65;;;2.80;;
18336;SDS011;9294;51.106;7.028;2023-11-21T01:01:17;2.70;;;2.50;;
18336;SDS011;9294;51.106;7.028;2023-11-21T01:03:45;2.95;;;2.75;;
18336;SDS011;9294;51.106;7.028;2023-11-21T01:06:12;3.00;;;2.80;;
18336;SDS011;9294;51.106;7.028;2023-11-21T01:08:39;2.80;;;2.60;;
18336;SDS011;9294;51.106;7.028;2023-11-21T01:11:07;2.35;;;2.25;;
18336;SDS011;9294;51.106;7.028;2023-11-21T01:13:36;3.33;;;3.05;;
18336;SDS011;9294;51.106;7.028;2023-11-21T01:16:04;2.67;;;2.47;;
18336;SDS011;9294;51.106;7.028;2023-11-21T01:18:32;2.60;;;2.35;;
18336;SDS011;9294;51.106;7.028;2023-11-21T01:20:59;2.50;;;2.30;;
18336;SDS011;9294;51.106;7.028;2023-11-21T01:23:26;2.50;;;2.30;;
18336;SDS011;9294;51.106;7.028;2023-11-21T01:25:55;2.85;;;2.65;;
18336;SDS011;9294;51.106;7.028;2023-11-21T01:28:24;2.67;;;2.50;;
18336;SDS011;9294;51.106;7.028;2023-11-21T01:30:51;2.58;;;2.38;;
18336;SDS011;9294;51.106;7.028;2023-11-21T01:33:21;2.50;;;2.38;;
18336;SDS011;9294;51.106;7.028;2023-11-21T01:35:49;2.83;;;2.63;;
18336;SDS011;9294;51.106;7.028;2023-11-21T01:38:18;2.50;;;2.40;;
18336;SDS011;9294;51.106;7.028;2023-11-21T01:40:44;2.35;;;2.20;;
18336;SDS011;9294;51.106;7.028;2023-11-21T01:43:11;2.88;;;2.67;;
18336;SDS011;9294;51.106;7.028;2023-11-21T01:45:39;2.50;;;2.40;;
18336;SDS011;9294;51.106;7.028;2023-11-21T01:48:06;2.15;;;2.05;;
18336;SDS011;9294;51.106;7.028;2023-11-21T01:50:33;2.38;;;2.28;;
18336;SDS011;9294;51.106;7.028;2023-11-21T01:52:59;2.65;;;2.42;;
18336;SDS011;9294;51.106;7.028;2023-11-21T01:55:28;2.80;;;2.60;;
18336;SDS011;9294;51.106;7.028;2023-11-21T01:57:56;2.33;;;2.22;;
18336;SDS011;9294;51.106;7.028;2023-11-21T02:00:23;1.80;;;1.70;;
18336;SDS011;9294;51.106;7.028;2023-11-21T02:02:52;2.92;;;2.72;;
18336;SDS011;9294;51.106;7.028;2023-11-21T02:05:19;2.00;;;1.90;;
18336;SDS011;9294;51.106;7.028;2023-11-21T02:07:46;2.83;;;2.38;;
18336;SDS011;9294;51.106;7.028;2023-11-21T02:10:14;2.45;;;2.30;;
18336;SDS011;9294;51.106;7.028;2023-11-21T02:12:41;2.47;;;2.38;;
18336;SDS011;9294;51.106;7.028;2023-11-21T02:15:09;1.98;;;1.88;;
18336;SDS011;9294;51.106;7.028;2023-11-21T02:17:41;2.03;;;1.92;;
18336;SDS011;9294;51.106;7.028;2023-11-21T02:20:10;2.08;;;1.98;;
18336;SDS011;9294;51.106;7.028;2023-11-21T02:22:40;2.00;;;1.90;;
18336;SDS011;9294;51.106;7.028;2023-11-21T02:25:09;2.20;;;2.10;;
18336;SDS011;9294;51.106;7.028;2023-11-21T02:27:36;2.17;;;2.08;;
18336;SDS011;9294;51.106;7.028;2023-11-21T02:30:03;2.20;;;2.10;;
18336;SDS011;9294;51.106;7.028;2023-11-21T02:32:32;2.45;;;2.35;;
18336;SDS011;9294;51.106;7.028;2023-11-21T02:34:59;2.25;;;2.15;;
18336;SDS011;9294;51.106;7.028;2023-11-21T02:37:28;2.38;;;2.17;;
18336;SDS011;9294;51.106;7.028;2023-11-21T02:39:55;2.38;;;2.17;;
18336;SDS011;9294;51.106;7.028;2023-11-21T02:42:23;2.35;;;2.25;;
18336;SDS011;9294;51.106;7.028;2023-11-21T02:44:49;2.05;;;1.95;;
18336;SDS011;9294;51.106;7.028;2023-11-21T02:47:16;2.22;;;2.13;;
18336;SDS011;9294;51.106;7.028;2023-11-21T02:49:43;2.53;;;2.33;;
18336;SDS011;9294;51.106;7.028;2023-11-21T02:52:09;2.10;;;2.00;;
18336;SDS011;9294;51.106;7.028;2023-11-21T02:54:36;2.08;;;1.98;;
18336;SDS011;9294;51.106;7.028;2023-11-21T02:57:03;2.10;;;2.00;;
18336;SDS011;9294;51.106;7.028;2023-11-21T02:59:32;2.05;;;1.92;;
18336;SDS011;9294;51.106;7.028;2023-11-21T03:01:58;2.10;;;2.00;;
18336;SDS011;9294;51.106;7.028;2023-11-21T03:04:25;1.98;;;1.88;;
18336;SDS011;9294;51.106;7.028;2023-11-21T03:06:52;2.20;;;2.10;;
18336;SDS011;9294;51.106;7.028;2023-11-21T03:09:18;2.45;;;1.98;;
18336;SDS011;9294;51.106;7.028;2023-11-21T03:11:45;2.22;;;2.13;;
18336;SDS011;9294;51.106;7.028;2023-11-21T03:14:12;2.20;;;2.10;;
18336;SDS011;9294;51.106;7.028;2023-11-21T03:16:40;2.00;;;1.90;;
18336;SDS011;9294;51.106;7.028;2023-11-21T03:19:07;2.20;;;2.00;;
18336;SDS011;9294;51.106;7.028;2023-11-21T03:21:34;1.90;;;1.80;;
18336;SDS011;9294;51.106;7.028;2023-11-21T03:24:01;1.42;;;1.42;;
18336;SDS011;9294;51.106;7.028;2023-11-21T03:26:27;1.85;;;1.70;;
18336;SDS011;9294;51.106;7.028;2023-11-21T03:28:54;1.58;;;1.58;;
18336;SDS011;9294;51.106;7.028;2023-11-21T03:31:21;1.60;;;1.60;;
18336;SDS011;9294;51.106;7.028;2023-11-21T03:33:49;1.80;;;1.80;;
18336;SDS011;9294;51.106;7.028;2023-11-21T03:36:17;1.83;;;1.77;;
18336;SDS011;9294;51.106;7.028;2023-11-21T03:38:44;2.05;;;1.80;;
18336;SDS011;9294;51.106;7.028;2023-11-21T03:41:11;1.90;;;1.90;;
18336;SDS011;9294;51.106;7.028;2023-11-21T03:43:37;2.00;;;1.90;;
18336;SDS011;9294;51.106;7.028;2023-11-21T03:46:04;2.22;;;2.13;;
18336;SDS011;9294;51.106;7.028;2023-11-21T03:48:32;2.28;;;2.17;;
18336;SDS011;9294;51.106;7.028;2023-11-21T03:51:00;2.03;;;1.92;;
18336;SDS011;9294;51.106;7.028;2023-11-21T03:53:27;1.67;;;1.67;;
18336;SDS011;9294;51.106;7.028;2023-11-21T03:55:53;1.88;;;1.80;;
18336;SDS011;9294;51.106;7.028;2023-11-21T03:58:20;2.88;;;1.70;;
18336;SDS011;9294;51.106;7.028;2023-11-21T04:00:47;2.40;;;2.08;;
18336;SDS011;9294;51.106;7.028;2023-11-21T04:03:14;2.17;;;2.08;;
18336;SDS011;9294;51.106;7.028;2023-11-21T04:05:41;1.90;;;1.80;;
18336;SDS011;9294;51.106;7.028;2023-11-21T04:08:09;2.17;;;2.08;;
18336;SDS011;9294;51.106;7.028;2023-11-21T04:10:36;2.10;;;1.90;;
18336;SDS011;9294;51.106;7.028;2023-11-21T04:13:04;1.92;;;1.85;;
18336;SDS011;9294;51.106;7.028;2023-11-21T04:15:31;2.03;;;1.92;;
18336;SDS011;9294;51.106;7.028;2023-11-21T04:17:58;2.67;;;2.00;;
18336;SDS011;9294;51.106;7.028;2023-11-21T04:20:25;2.05;;;1.95;;
18336;SDS011;9294;51.106;7.028;2023-11-21T04:22:52;2.47;;;2.22;;
18336;SDS011;9294;51.106;7.028;2023-11-21T04:25:20;1.65;;;1.65;;
18336;SDS011;9294;51.106;7.028;2023-11-21T04:27:48;1.98;;;1.88;;
18336;SDS011;9294;51.106;7.028;2023-11-21T04:30:15;1.80;;;1.70;;
18336;SDS011;9294;51.106;7.028;2023-11-21T04:32:42;2.10;;;2.00;;
18336;SDS011;9294;51.106;7.028;2023-11-21T04:35:09;1.80;;;1.73;;
18336;SDS011;9294;51.106;7.028;2023-11-21T04:37:35;2.30;;;2.20;;
18336;SDS011;9294;51.106;7.028;2023-11-21T04:40:03;2.40;;;2.30;;
18336;SDS011;9294;51.106;7.028;2023-11-21T04:42:33;2.10;;;1.90;;
18336;SDS011;9294;51.106;7.028;2023-11-21T04:45:00;1.70;;;1.70;;
18336;SDS011;9294;51.106;7.028;2023-11-21T04:47:30;1.95;;;1.83;;
18336;SDS011;9294;51.106;7.028;2023-11-21T04:49:56;1.85;;;1.77;;
18336;SDS011;9294;51.106;7.028;2023-11-21T04:52:23;2.38;;;2.20;;
18336;SDS011;9294;51.106;7.028;2023-11-21T04:54:50;2.05;;;2.00;;
18336;SDS011;9294;51.106;7.028;2023-11-21T04:57:19;1.70;;;1.70;;
18336;SDS011;9294;51.106;7.028;2023-11-21T04:59:48;2.10;;;2.00;;
18336;SDS011;9294;51.106;7.028;2023-11-21T05:02:15;1.83;;;1.73;;
18336;SDS011;9294;51.106;7.028;2023-11-21T05:04:44;1.90;;;1.80;;
18336;SDS011;9294;51.106;7.028;2023-11-21T05:07:10;1.90;;;1.80;;
18336;SDS011;9294;51.106;7.028;2023-11-21T05:09:40;1.88;;;1.77;;
18336;SDS011;9294;51.106;7.028;2023-11-21T05:12:08;1.70;;;1.63;;
18336;SDS011;9294;51.106;7.028;2023-11-21T05:14:35;2.00;;;1.90;;
18336;SDS011;9294;51.106;7.028;2023-11-21T05:17:04;1.60;;;1.50;;
18336;SDS011;9294;51.106;7.028;2023-11-21T05:19:30;2.08;;;1.98;;
18336;SDS011;9294;51.106;7.028;2023-11-21T05:21:57;1.80;;;1.80;;
18336;SDS011;9294;51.106;7.028;2023-11-21T05:24:25;1.77;;;1.67;;
18336;SDS011;9294;51.106;7.028;2023-11-21T05:26:52;1.92;;;1.83;;
18336;SDS011;9294;51.106;7.028;2023-11-21T05:29:19;2.05;;;1.95;;
18336;SDS011;9294;51.106;7.028;2023-11-21T05:31:45;1.52;;;1.52;;
18336;SDS011;9294;51.106;7.028;2023-11-21T05:34:13;1.92;;;1.63;;
18336;SDS011;9294;51.106;7.028;2023-11-21T05:36:42;1.80;;;1.67;;
18336;SDS011;9294;51.106;7.028;2023-11-21T05:39:09;2.00;;;1.85;;
18336;SDS011;9294;51.106;7.028;2023-11-21T05:41:36;2.28;;;2.17;;
18336;SDS011;9294;51.106;7.028;2023-11-21T05:44:03;1.90;;;1.80;;
18336;SDS011;9294;51.106;7.028;2023-11-21T05:46:30;2.50;;;1.70;;
18336;SDS011;9294;51.106;7.028;2023-11-21T05:48:56;1.70;;;1.70;;
18336;SDS011;9294;51.106;7.028;2023-11-21T05:51:24;2.05;;;1.95;;
18336;SDS011;9294;51.106;7.028;2023-11-21T05:53:51;1.85;;;1.75;;
18336;SDS011;9294;51.106;7.028;2023-11-21T05:56:18;1.73;;;1.70;;
18336;SDS011;9294;51.106;7.028;2023-11-21T05:58:44;1.85;;;1.75;;
18336;SDS011;9294;51.106;7.028;2023-11-21T06:01:11;1.73;;;1.73;;
18336;SDS011;9294;51.106;7.028;2023-11-21T06:03:38;1.75;;;1.65;;
18336;SDS011;9294;51.106;7.028;2023-11-21T06:06:05;1.77;;;1.67;;
18336;SDS011;9294;51.106;7.028;2023-11-21T06:08:33;1.98;;;1.52;;
18336;SDS011;9294;51.106;7.028;2023-11-21T06:11:00;1.70;;;1.60;;
18336;SDS011;9294;51.106;7.028;2023-11-21T06:13:26;3.00;;;1.77;;
18336;SDS011;9294;51.106;7.028;2023-11-21T06:15:53;1.63;;;1.52;;
18336;SDS011;9294;51.106;7.028;2023-11-21T06:18:20;2.35;;;2.15;;
18336;SDS011;9294;51.106;7.028;2023-11-21T06:20:46;1.60;;;1.50;;
18336;SDS011;9294;51.106;7.028;2023-11-21T06:23:13;2.25;;;1.95;;
18336;SDS011;9294;51.106;7.028;2023-11-21T06:25:42;1.85;;;1.60;;
18336;SDS011;9294;51.106;7.028;2023-11-21T06:28:09;2.25;;;2.05;;
18336;SDS011;9294;51.106;7.028;2023-11-21T06:30:36;3.85;;;1.75;;
18336;SDS011;9294;51.106;7.028;2023-11-21T06:33:03;2.15;;;2.05;;
18336;SDS011;9294;51.106;7.028;2023-11-21T06:35:31;2.00;;;1.90;;
18336;SDS011;9294;51.106;7.028;2023-11-21T06:37:59;5.90;;;1.90;;
18336;SDS011;9294;51.106;7.028;2023-11-21T06:40:27;2.72;;;2.00;;
18336;SDS011;9294;51.106;7.028;2023-11-21T06:42:55;3.00;;;2.33;;
18336;SDS011;9294;51.106;7.028;2023-11-21T06:45:23;1.58;;;1.48;;
18336;SDS011;9294;51.106;7.028;2023-11-21T06:47:50;5.20;;;2.10;;
18336;SDS011;9294;51.106;7.028;2023-11-21T06:50:17;1.98;;;1.88;;
18336;SDS011;9294;51.106;7.028;2023-11-21T06:52:44;3.17;;;2.33;;
18336;SDS011;9294;51.106;7.028;2023-11-21T06:55:10;3.05;;;1.92;;
18336;SDS011;9294;51.106;7.028;2023-11-21T06:57:38;2.40;;;2.20;;
18336;SDS011;9294;51.106;7.028;2023-11-21T07:00:06;2.08;;;1.98;;
18336;SDS011;9294;51.106;7.028;2023-11-21T07:02:34;2.78;;;1.80;;
18336;SDS011;9294;51.106;7.028;2023-11-21T07:05:01;3.13;;;1.98;;
18336;SDS011;9294;51.106;7.028;2023-11-21T07:07:27;4.45;;;2.00;;
18336;SDS011;9294;51.106;7.028;2023-11-21T07:09:54;2.22;;;2.08;;
18336;SDS011;9294;51.106;7.028;2023-11-21T07:12:21;3.80;;;2.13;;
18336;SDS011;9294;51.106;7.028;2023-11-21T07:14:48;2.28;;;1.92;;
18336;SDS011;9294;51.106;7.028;2023-11-21T07:17:16;2.38;;;2.20;;
18336;SDS011;9294;51.106;7.028;2023-11-21T07:19:43;1.98;;;1.90;;
18336;SDS011;9294;51.106;7.028;2023-11-21T07:22:10;2.08;;;1.98;;
18336;SDS011;9294;51.106;7.028;2023-11-21T07:24:39;3.10;;;1.98;;
18336;SDS011;9294;51.106;7.028;2023-11-21T07:27:05;1.98;;;1.85;;
18336;SDS011;9294;51.106;7.028;2023-11-21T07:29:32;2.72;;;1.92;;
18336;SDS011;9294;51.106;7.028;2023-11-21T07:31:59;1.92;;;1.83;;
18336;SDS011;9294;51.106;7.028;2023-11-21T07:34:27;2.10;;;2.00;;
18336;SDS011;9294;51.106;7.028;2023-11-21T07:36:54;3.30;;;1.90;;
18336;SDS011;9294;51.106;7.028;2023-11-21T07:39:20;2.30;;;1.80;;
18336;SDS011;9294;51.106;7.028;2023-11-21T07:41:47;2.05;;;1.83;;
18336;SDS011;9294;51.106;7.028;2023-11-21T07:44:15;1.90;;;1.58;;
18336;SDS011;9294;51.106;7.028;2023-11-21T07:46:43;1.80;;;1.70;;
18336;SDS011;9294;51.106;7.028;2023-11-21T07:49:10;2.20;;;2.00;;
18336;SDS011;9294;51.106;7.028;2023-11-21T07:51:38;3.65;;;2.60;;
18336;SDS011;9294;51.106;7.028;2023-11-21T07:54:05;2.65;;;2.17;;
18336;SDS011;9294;51.106;7.028;2023-11-21T07:56:31;5.28;;;2.40;;
18336;SDS011;9294;51.106;7.028;2023-11-21T07:58:58;2.67;;;2.47;;
18336;SDS011;9294;51.106;7.028;2023-11-21T08:01:25;5.03;;;2.95;;
18336;SDS011;9294;51.106;7.028;2023-11-21T08:03:53;4.25;;;2.55;;
18336;SDS011;9294;51.106;7.028;2023-11-21T08:06:22;4.57;;;2.20;;
18336;SDS011;9294;51.106;7.028;2023-11-21T08:08:50;2.58;;;2.47;;
18336;SDS011;9294;51.106;7.028;2023-11-21T08:11:16;5.45;;;2.40;;
18336;SDS011;9294;51.106;7.028;2023-11-21T08:13:44;2.25;;;2.10;;
18336;SDS011;9294;51.106;7.028;2023-11-21T08:16:11;9.43;;;6.63;;
18336;SDS011;9294;51.106;7.028;2023-11-21T08:18:38;5.28;;;4.22;;
18336;SDS011;9294;51.106;7.028;2023-11-21T08:21:05;4.00;;;3.05;;
18336;SDS011;9294;51.106;7.028;2023-11-21T08:23:33;2.75;;;2.55;;
18336;SDS011;9294;51.106;7.028;2023-11-21T08:26:01;3.38;;;2.75;;
18336;SDS011;9294;51.106;7.028;2023-11-21T08:28:28;2.85;;;2.65;;
18336;SDS011;9294;51.106;7.028;2023-11-21T08:30:55;3.75;;;2.75;;
18336;SDS011;9294;51.106;7.028;2023-11-21T08:33:21;8.43;;;3.67;;
18336;SDS011;9294;51.106;7.028;2023-11-21T08:35:48;7.63;;;2.97;;
18336;SDS011;9294;51.106;7.028;2023-11-21T08:38:15;7.03;;;3.15;;
18336;SDS011;9294;51.106;7.028;2023-11-21T08:40:42;4.03;;;3.28;;
18336;SDS011;9294;51.106;7.028;2023-11-21T08:43:10;4.13;;;2.70;;
18336;SDS011;9294;51.106;7.028;2023-11-21T08:45:39;4.07;;;2.67;;
18336;SDS011;9294;51.106;7.028;2023-11-21T08:48:05;3.83;;;3.03;;
18336;SDS011;9294;51.106;7.028;2023-11-21T08:50:32;4.25;;;3.85;;
18336;SDS011;9294;51.106;7.028;2023-11-21T08:52:59;4.78;;;4.30;;
18336;SDS011;9294;51.106;7.028;2023-11-21T08:55:26;4.13;;;3.47;;
18336;SDS011;9294;51.106;7.028;2023-11-21T08:57:53;3.60;;;3.30;;
18336;SDS011;9294;51.106;7.028;2023-11-21T09:00:21;5.15;;;3.30;;
18336;SDS011;9294;51.106;7.028;2023-11-21T09:02:48;4.13;;;3.15;;
18336;SDS011;9294;51.106;7.028;2023-11-21T09:05:15;4.00;;;3.40;;
18336;SDS011;9294;51.106;7.028;2023-11-21T09:07:42;3.28;;;2.80;;
18336;SDS011;9294;51.106;7.028;2023-11-21T09:10:11;3.90;;;3.53;;
18336;SDS011;9294;51.106;7.028;2023-11-21T09:12:39;5.13;;;3.47;;
18336;SDS011;9294;51.106;7.028;2023-11-21T09:15:08;3.78;;;3.40;;
18336;SDS011;9294;51.106;7.028;2023-11-21T09:17:38;6.05;;;3.60;;
18336;SDS011;9294;51.106;7.028;2023-11-21T09:20:05;5.15;;;3.40;;
18336;SDS011;9294;51.106;7.028;2023-11-21T09:22:35;6.97;;;3.80;;
18336;SDS011;9294;51.106;7.028;2023-11-21T09:25:01;3.33;;;3.10;;
18336;SDS011;9294;51.106;7.028;2023-11-21T09:27:30;4.43;;;4.10;;
18336;SDS011;9294;51.106;7.028;2023-11-21T09:29:57;4.32;;;3.47;;
18336;SDS011;9294;51.106;7.028;2023-11-21T09:32:24;8.02;;;3.67;;
18336;SDS011;9294;51.106;7.028;2023-11-21T09:34:52;4.30;;;3.60;;
18336;SDS011;9294;51.106;7.028;2023-11-21T09:37:20;4.18;;;3.65;;
18336;SDS011;9294;51.106;7.028;2023-11-21T09:39:47;3.85;;;3.50;;
18336;SDS011;9294;51.106;7.028;2023-11-21T09:42:15;6.38;;;3.78;;
18336;SDS011;9294;51.106;7.028;2023-11-21T09:44:48;4.38;;;3.97;;
18336;SDS011;9294;51.106;7.028;2023-11-21T09:47:20;6.78;;;3.40;;
18336;SDS011;9294;51.106;7.028;2023-11-21T09:49:48;5.32;;;3.75;;
18336;SDS011;9294;51.106;7.028;2023-11-21T09:52:18;7.25;;;3.95;;
18336;SDS011;9294;51.106;7.028;2023-11-21T09:54:50;4.65;;;3.42;;
18336;SDS011;9294;51.106;7.028;2023-11-21T09:57:18;4.80;;;3.47;;
18336;SDS011;9294;51.106;7.028;2023-11-21T09:59:46;5.47;;;3.95;;
18336;SDS011;9294;51.106;7.028;2023-11-21T10:02:16;6.68;;;3.90;;
18336;SDS011;9294;51.106;7.028;2023-11-21T10:04:43;3.65;;;3.38;;
18336;SDS011;9294;51.106;7.028;2023-11-21T10:07:10;4.07;;;3.67;;
18336;SDS011;9294;51.106;7.028;2023-11-21T10:09:41;4.53;;;3.60;;
18336;SDS011;9294;51.106;7.028;2023-11-21T10:12:08;3.85;;;3.60;;
18336;SDS011;9294;51.106;7.028;2023-11-21T10:14:37;6.85;;;3.85;;
18336;SDS011;9294;51.106;7.028;2023-11-21T10:17:09;6.05;;;3.70;;
18336;SDS011;9294;51.106;7.028;2023-11-21T10:19:37;5.38;;;4.10;;
18336;SDS011;9294;51.106;7.028;2023-11-21T10:22:05;4.55;;;4.00;;
18336;SDS011;9294;51.106;7.028;2023-11-21T10:24:33;5.85;;;4.13;;
18336;SDS011;9294;51.106;7.028;2023-11-21T10:27:03;6.72;;;4.63;;
18336;SDS011;9294;51.106;7.028;2023-11-21T10:29:30;4.95;;;4.00;;
18336;SDS011;9294;51.106;7.028;2023-11-21T10:32:00;4.88;;;4.22;;
18336;SDS011;9294;51.106;7.028;2023-11-21T10:34:28;4.07;;;3.72;;
18336;SDS011;9294;51.106;7.028;2023-11-21T10:36:55;5.38;;;3.80;;
18336;SDS011;9294;51.106;7.028;2023-11-21T10:39:23;4.22;;;3.80;;
18336;SDS011;9294;51.106;7.028;2023-11-21T10:41:54;5.45;;;4.38;;
18336;SDS011;9294;51.106;7.028;2023-11-21T10:44:22;5.20;;;4.65;;
18336;SDS011;9294;51.106;7.028;2023-11-21T10:46:50;5.07;;;4.55;;
18336;SDS011;9294;51.106;7.028;2023-11-21T10:49:21;7.35;;;4.15;;
18336;SDS011;9294;51.106;7.028;2023-11-21T10:51:49;5.72;;;3.97;;
18336;SDS011;9294;51.106;7.028;2023-11-21T10:54:18;5.45;;;4.15;;
18336;SDS011;9294;51.106;7.028;2023-11-21T10:56:45;5.30;;;4.22;;
18336;SDS011;9294;51.106;7.028;2023-11-21T10:59:16;6.80;;;4.18;;
18336;SDS011;9294;51.106;7.028;2023-11-21T11:01:44;9.45;;;8.02;;
18336;SDS011;9294;51.106;7.028;2023-11-21T11:04:12;15.95;;;12.80;;
18336;SDS011;9294;51.106;7.028;2023-11-21T11:06:42;34.35;;;20.05;;
18336;SDS011;9294;51.106;7.028;2023-11-21T11:09:10;33.05;;;25.10;;
18336;SDS011;9294;51.106;7.028;2023-11-21T11:11:40;35.38;;;26.90;;
18336;SDS011;9294;51.106;7.028;2023-11-21T11:14:09;35.90;;;26.98;;
18336;SDS011;9294;51.106;7.028;2023-11-21T11:16:38;34.95;;;25.48;;
18336;SDS011;9294;51.106;7.028;2023-11-21T11:19:07;35.25;;;25.67;;
18336;SDS011;9294;51.106;7.028;2023-11-21T11:21:37;31.80;;;24.80;;
18336;SDS011;9294;51.106;7.028;2023-11-21T11:24:23;26.67;;;22.65;;
18336;SDS011;9294;51.106;7.028;2023-11-21T11:27:07;27.55;;;21.48;;
18336;SDS011;9294;51.106;7.028;2023-11-21T11:29:42;27.60;;;21.25;;
18336;SDS011;9294;51.106;7.028;2023-11-21T11:32:21;30.58;;;20.42;;
18336;SDS011;9294;51.106;7.028;2023-11-21T11:34:56;24.42;;;18.35;;
18336;SDS011;9294;51.106;7.028;2023-11-21T11:37:27;25.48;;;18.75;;
18336;SDS011;9294;51.106;7.028;2023-11-21T11:39:54;21.50;;;17.92;;
18336;SDS011;9294;51.106;7.028;2023-11-21T11:42:22;22.70;;;16.67;;
18336;SDS011;9294;51.106;7.028;2023-11-21T11:44:50;23.17;;;16.83;;
18336;SDS011;9294;51.106;7.028;2023-11-21T11:47:27;18.15;;;14.68;;
18336;SDS011;9294;51.106;7.028;2023-11-21T11:50:03;20.85;;;14.55;;
18336;SDS011;9294;51.106;7.028;2023-11-21T11:52:33;22.13;;;15.02;;
18336;SDS011;9294;51.106;7.028;2023-11-21T11:55:07;20.90;;;14.18;;
18336;SDS011;9294;51.106;7.028;2023-11-21T11:57:36;22.92;;;14.73;;
18336;SDS011;9294;51.106;7.028;2023-11-21T12:00:08;18.17;;;13.30;;
18336;SDS011;9294;51.106;7.028;2023-11-21T12:02:41;15.82;;;12.43;;
18336;SDS011;9294;51.106;7.028;2023-11-21T12:05:10;23.13;;;13.43;;
18336;SDS011;9294;51.106;7.028;2023-11-21T12:07:42;19.65;;;12.35;;
18336;SDS011;9294;51.106;7.028;2023-11-21T12:10:13;14.13;;;11.88;;
18336;SDS011;9294;51.106;7.028;2023-11-21T12:12:42;14.63;;;11.82;;
18336;SDS011;9294;51.106;7.028;2023-11-21T12:15:11;17.63;;;11.77;;
18336;SDS011;9294;51.106;7.028;2023-11-21T12:17:38;17.10;;;11.75;;
18336;SDS011;9294;51.106;7.028;2023-11-21T12:20:05;13.70;;;11.40;;
18336;SDS011;9294;51.106;7.028;2023-11-21T12:22:40;17.27;;;10.73;;
18336;SDS011;9294;51.106;7.028;2023-11-21T12:25:09;16.17;;;10.05;;
18336;SDS011;9294;51.106;7.028;2023-11-21T12:27:40;13.30;;;10.65;;
18336;SDS011;9294;51.106;7.028;2023-11-21T12:30:08;13.63;;;9.63;;
18336;SDS011;9294;51.106;7.028;2023-11-21T12:32:38;12.60;;;10.52;;
18336;SDS011;9294;51.106;7.028;2023-11-21T12:35:06;13.40;;;9.20;;
18336;SDS011;9294;51.106;7.028;2023-11-21T12:37:33;14.77;;;10.05;;
18336;SDS011;9294;51.106;7.028;2023-11-21T12:40:01;14.35;;;9.65;;
18336;SDS011;9294;51.106;7.028;2023-11-21T12:42:28;11.93;;;9.95;;
18336;SDS011;9294;51.106;7.028;2023-11-21T12:45:08;16.80;;;9.80;;
18336;SDS011;9294;51.106;7.028;2023-11-21T12:47:40;12.55;;;8.52;;
18336;SDS011;9294;51.106;7.028;2023-11-21T12:50:08;11.68;;;8.93;;
18336;SDS011;9294;51.106;7.028;2023-11-21T12:52:39;11.30;;;9.10;;
18336;SDS011;9294;51.106;7.028;2023-11-21T12:55:10;17.77;;;9.38;;
18336;SDS011;9294;51.106;7.028;2023-11-21T12:57:40;12.02;;;8.55;;
18336;SDS011;9294;51.106;7.028;2023-11-21T13:00:09;13.73;;;9.57;;
18336;SDS011;9294;51.106;7.028;2023-11-21T13:02:40;11.98;;;7.72;;
18336;SDS011;9294;51.106;7.028;2023-11-21T13:05:08;17.33;;;9.40;;
18336;SDS011;9294;51.106;7.028;2023-11-21T13:07:43;13.70;;;8.85;;
18336;SDS011;9294;51.106;7.028;2023-11-21T13:10:13;12.95;;;8.45;;
18336;SDS011;9294;51.106;7.028;2023-11-21T13:12:42;11.70;;;8.55;;
18336;SDS011;9294;51.106;7.028;2023-11-21T13:15:13;10.25;;;7.57;;
18336;SDS011;9294;51.106;7.028;2023-11-21T13:17:42;9.85;;;7.78;;
18336;SDS011;9294;51.106;7.028;2023-11-21T13:20:10;12.55;;;8.68;;
18336;SDS011;9294;51.106;7.028;2023-11-21T13:22:44;9.40;;;6.97;;
18336;SDS011;9294;51.106;7.028;2023-11-21T13:25:13;15.68;;;7.78;;
18336;SDS011;9294;51.106;7.028;2023-11-21T13:27:42;11.93;;;7.32;;
18336;SDS011;9294;51.106;7.028;2023-11-21T13:30:10;15.13;;;7.72;;
18336;SDS011;9294;51.106;7.028;2023-11-21T13:32:40;11.32;;;7.10;;
18336;SDS011;9294;51.106;7.028;2023-11-21T13:35:07;11.98;;;8.10;;
18336;SDS011;9294;51.106;7.028;2023-11-21T13:37:40;8.75;;;7.07;;
18336;SDS011;9294;51.106;7.028;2023-11-21T13:40:07;9.45;;;7.60;;
18336;SDS011;9294;51.106;7.028;2023-11-21T13:42:41;10.90;;;6.93;;
18336;SDS011;9294;51.106;7.028;2023-11-21T13:45:09;9.00;;;7.15;;
18336;SDS011;9294;51.106;7.028;2023-11-21T13:47:37;10.52;;;6.80;;
18336;SDS011;9294;51.106;7.028;2023-11-21T13:50:05;15.85;;;7.95;;
18336;SDS011;9294;51.106;7.028;2023-11-21T13:52:41;9.73;;;8.25;;
18336;SDS011;9294;51.106;7.028;2023-11-21T13:55:08;13.80;;;8.13;;
18336;SDS011;9294;51.106;7.028;2023-11-21T13:57:42;13.50;;;8.65;;
18336;SDS011;9294;51.106;7.028;2023-11-21T14:00:12;12.52;;;7.55;;
18336;SDS011;9294;51.106;7.028;2023-11-21T14:03:00;12.13;;;7.45;;
18336;SDS011;9294;51.106;7.028;2023-11-21T14:05:30;10.77;;;8.10;;
18336;SDS011;9294;51.106;7.028;2023-11-21T14:07:59;11.68;;;7.93;;
18336;SDS011;9294;51.106;7.028;2023-11-21T14:10:29;11.68;;;8.25;;
18336;SDS011;9294;51.106;7.028;2023-11-21T14:13:06;9.55;;;8.13;;
18336;SDS011;9294;51.106;7.028;2023-11-21T14:15:33;11.90;;;8.48;;
18336;SDS011;9294;51.106;7.028;2023-11-21T14:18:03;9.02;;;7.55;;
18336;SDS011;9294;51.106;7.028;2023-11-21T14:20:32;14.70;;;8.52;;
18336;SDS011;9294;51.106;7.028;2023-11-21T14:23:01;11.68;;;7.65;;
18336;SDS011;9294;51.106;7.028;2023-11-21T14:25:28;10.10;;;8.02;;
18336;SDS011;9294;51.106;7.028;2023-11-21T14:27:54;10.27;;;7.70;;
18336;SDS011;9294;51.106;7.028;2023-11-21T14:30:23;11.65;;;8.15;;
18336;SDS011;9294;51.106;7.028;2023-11-21T14:32:51;9.65;;;8.13;;
18336;SDS011;9294;51.106;7.028;2023-11-21T14:35:17;9.60;;;7.28;;
18336;SDS011;9294;51.106;7.028;2023-11-21T14:37:44;8.15;;;7.25;;
18336;SDS011;9294;51.106;7.028;2023-11-21T14:40:12;8.82;;;7.97;;
18336;SDS011;9294;51.106;7.028;2023-11-21T14:42:41;10.32;;;8.10;;
18336;SDS011;9294;51.106;7.028;2023-11-21T14:45:08;12.50;;;8.02;;
18336;SDS011;9294;51.106;7.028;2023-11-21T14:47:39;9.15;;;7.43;;
18336;SDS011;9294;51.106;7.028;2023-11-21T14:50:11;8.93;;;7.88;;
18336;SDS011;9294;51.106;7.028;2023-11-21T14:52:52;8.55;;;6.88;;
18336;SDS011;9294;51.106;7.028;2023-11-21T14:55:24;9.70;;;7.88;;
18336;SDS011;9294;51.106;7.028;2023-11-21T14:57:56;9.70;;;8.00;;
18336;SDS011;9294;51.106;7.028;2023-11-21T15:00:27;8.45;;;7.65;;
18336;SDS011;9294;51.106;7.028;2023-11-21T15:03:07;8.73;;;7.53;;
18336;SDS011;9294;51.106;7.028;2023-11-21T15:05:34;9.98;;;8.15;;